createdAt,value
2019-06-07T00:04:59.115Z,11.22
2019-06-07T00:10:03.669Z,8.45
2019-06-07T00:15:12.942Z,9.23
2019-06-07T00:20:23.471Z,10.23
2019-06-07T00:25:25.323Z,8.58
2019-06-07T00:30:48.463Z,12.95
2019-06-07T00:35:38.268Z,9.33
2019-06-07T00:40:44.665Z,11.08
2019-06-07T00:45:48.355Z,10.70
2019-06-07T00:50:57.091Z,10.15
2019-06-07T00:56:02.271Z,10.58
2019-06-07T01:01:12.471Z,8.90
2019-06-07T01:06:17.522Z,11.30
2019-06-07T01:11:35.309Z,9.43
2019-06-07T01:16:56.528Z,12.50
2019-06-07T01:21:44.464Z,11.60
2019-06-07T01:26:52.136Z,12.03
2019-06-07T01:32:05.519Z,11.43
2019-06-07T01:37:10.660Z,12.37
2019-06-07T01:42:14.376Z,10.20
2019-06-07T01:47:21.192Z,13.53
2019-06-07T01:52:27.460Z,14.07
2019-06-07T01:57:45.640Z,12.82
2019-06-07T02:02:39.632Z,12.68
2019-06-07T02:07:53.348Z,10.85
2019-06-07T02:12:57.070Z,14.43
2019-06-07T02:18:00.830Z,13.35
2019-06-07T02:23:06.232Z,12.30
2019-06-07T02:28:27.575Z,15.10
2019-06-07T02:33:24.191Z,12.75
2019-06-07T02:38:43.399Z,11.40
2019-06-07T02:43:55.693Z,11.73
2019-06-07T02:49:02.230Z,13.15
2019-06-07T02:54:13.622Z,12.18
2019-06-07T02:59:40.194Z,12.95
2019-06-07T03:04:28.568Z,12.00
2019-06-07T03:09:35.048Z,12.33
2019-06-07T03:14:55.606Z,13.93
2019-06-07T03:20:02.813Z,11.70
2019-06-07T03:25:07.696Z,10.95
2019-06-07T03:35:28.456Z,15.40
2019-06-07T03:40:31.691Z,11.45
2019-06-07T03:45:41.170Z,11.45
2019-06-07T03:51:04.460Z,15.40
2019-06-07T03:56:05.154Z,14.05
2019-06-07T04:01:13.971Z,10.55
2019-06-07T04:06:32.483Z,11.80
2019-06-07T04:11:35.773Z,10.72
2019-06-07T04:16:44.198Z,14.20
2019-06-07T04:21:45.422Z,15.78
2019-06-07T04:26:58.164Z,12.85
2019-06-07T04:32:04.426Z,13.50
2019-06-07T04:37:12.645Z,14.10
2019-06-07T04:42:19.725Z,14.40
2019-06-07T04:47:26.884Z,12.98
2019-06-07T04:52:33.475Z,13.35
2019-06-07T04:57:37.617Z,12.93
2019-06-07T05:02:45.017Z,13.43
2019-06-07T05:07:48.630Z,17.92
2019-06-07T05:13:02.531Z,12.23
2019-06-07T05:18:09.309Z,15.75
2019-06-07T05:24:00.189Z,15.32
2019-06-07T05:28:35.756Z,15.00
2019-06-07T05:33:45.362Z,14.93
2019-06-07T05:38:50.418Z,13.48
2019-06-07T05:49:46.963Z,19.00
2019-06-07T05:55:01.943Z,14.35
2019-06-07T06:00:08.235Z,13.48
2019-06-07T06:05:33.406Z,12.63
2019-06-07T06:10:26.348Z,15.08
2019-06-07T06:15:42.309Z,12.37
2019-06-07T06:21:05.360Z,18.10
2019-06-07T06:25:58.484Z,14.03
2019-06-07T06:36:49.742Z,13.62
2019-06-07T06:42:03.364Z,14.53
2019-06-07T06:47:00.894Z,12.37
2019-06-07T06:52:08.133Z,11.28
2019-06-07T06:57:20.364Z,13.72
2019-06-07T07:02:31.253Z,10.32
2019-06-07T07:07:36.074Z,10.68
2019-06-07T07:13:07.443Z,9.25
2019-06-07T07:18:12.143Z,12.80
2019-06-07T07:23:17.410Z,11.93
2019-06-07T07:28:24.663Z,8.55
2019-06-07T07:39:00.441Z,11.90
2019-06-07T07:44:06.045Z,13.15
2019-06-07T07:49:05.122Z,11.00
2019-06-07T07:54:11.084Z,10.30
2019-06-07T07:59:16.742Z,10.55
2019-06-07T08:04:39.498Z,11.28
2019-06-07T08:09:25.552Z,11.18
2019-06-07T08:14:29.098Z,12.43
2019-06-07T08:19:39.498Z,10.15
2019-06-07T08:24:50.471Z,11.20
2019-06-07T08:30:15.638Z,13.18
2019-06-07T08:35:06.021Z,10.68
2019-06-07T08:40:13.702Z,13.05
2019-06-07T08:45:24.781Z,10.58
2019-06-07T08:51:06.579Z,10.23
2019-06-07T09:17:26.281Z,11.28
2019-06-07T09:22:32.848Z,8.78
2019-06-07T09:27:51.093Z,9.05
2019-06-07T09:33:06.623Z,8.45
2019-06-07T09:38:23.405Z,7.80
2019-06-07T09:44:00.834Z,10.10
2019-06-07T09:49:10.609Z,11.95
2019-06-07T09:53:56.152Z,11.85
2019-06-07T09:59:12.656Z,26.93
2019-06-07T10:04:30.300Z,14.07
2019-06-07T10:14:37.266Z,11.22
2019-06-07T10:19:44.608Z,10.05
2019-06-07T10:24:48.278Z,11.55
2019-06-07T10:29:51.802Z,9.00
2019-06-07T10:34:55.336Z,10.72
2019-06-07T10:39:58.910Z,12.33
2019-06-07T10:45:04.473Z,8.70
2019-06-07T10:50:10.267Z,8.85
2019-06-07T10:55:17.603Z,14.38
2019-06-07T11:12:06.393Z,10.82
2019-06-07T11:17:13.419Z,12.63
2019-06-07T11:22:23.436Z,9.28
2019-06-07T11:27:44.531Z,8.95
2019-06-07T11:32:48.299Z,6.78
2019-06-07T11:37:58.127Z,12.18
2019-06-07T11:43:08.600Z,12.23
2019-06-07T11:48:20.416Z,12.95
2019-06-07T11:53:24.214Z,12.50
2019-06-07T11:58:29.586Z,11.45
2019-06-07T12:03:33.345Z,6.78
2019-06-07T12:08:40.135Z,6.65
2019-06-07T12:13:43.811Z,9.73
2019-06-07T12:18:53.370Z,5.10
2019-06-07T12:23:57.162Z,5.42
2019-06-07T12:29:00.853Z,7.17
2019-06-07T12:34:11.182Z,8.00
2019-06-07T12:39:16.044Z,8.58
2019-06-07T12:44:20.762Z,6.90
2019-06-07T12:49:24.409Z,7.28
2019-06-07T12:54:28.129Z,10.65
2019-06-07T12:59:31.717Z,6.33
2019-06-07T13:04:35.257Z,5.40
2019-06-07T13:09:42.399Z,9.90
2019-06-07T13:14:46.083Z,5.65
2019-06-07T13:19:50.656Z,4.97
2019-06-07T13:24:54.327Z,4.87
2019-06-07T13:29:57.880Z,5.37
2019-06-07T13:35:01.508Z,3.45
2019-06-07T13:40:06.855Z,7.37
2019-06-07T13:45:11.141Z,6.15
2019-06-07T13:50:15.083Z,3.08
2019-06-07T13:55:25.794Z,4.17
2019-06-07T14:05:43.943Z,6.67
2019-06-07T14:10:47.540Z,2.55
2019-06-07T14:21:22.554Z,3.05
2019-06-07T14:26:23.519Z,4.55
2019-06-07T14:31:30.299Z,6.65
2019-06-07T14:36:42.394Z,6.33
2019-06-07T15:35:45.905Z,2.20
2019-06-07T16:14:39.094Z,4.55
2019-06-07T16:20:12.015Z,2.22
2019-06-07T16:25:52.905Z,2.90
2019-06-07T16:58:05.728Z,1.65
2019-06-07T17:03:34.780Z,2.90
2019-06-07T17:14:12.065Z,4.62
2019-06-07T17:30:11.081Z,2.17
2019-06-07T17:35:44.668Z,0.98
2019-06-07T17:40:36.919Z,1.57
2019-06-07T17:45:47.496Z,2.35
2019-06-07T17:50:57.704Z,1.40
2019-06-07T18:02:26.573Z,1.40
2019-06-07T18:08:06.239Z,2.42
2019-06-07T18:13:19.071Z,2.62
2019-06-07T18:18:24.172Z,1.90
2019-06-07T18:23:28.378Z,2.95
2019-06-07T18:28:34.951Z,1.22
2019-06-07T18:33:38.695Z,1.25
2019-06-07T18:38:59.550Z,1.90
2019-06-07T18:44:21.644Z,3.55
2019-06-07T18:49:29.418Z,4.60
2019-06-07T18:54:37.096Z,2.62
2019-06-07T18:59:48.309Z,3.98
2019-06-07T19:04:54.188Z,3.30
2019-06-07T19:10:10.618Z,2.33
2019-06-07T19:15:12.387Z,2.17
2019-06-07T19:20:18.721Z,4.40
2019-06-07T19:25:22.772Z,1.45
2019-06-07T19:30:26.643Z,0.90
2019-06-07T19:35:30.319Z,2.55
2019-06-07T19:40:33.935Z,3.05
2019-06-07T19:45:37.708Z,3.80
2019-06-07T19:50:44.102Z,1.75
2019-06-07T19:55:47.697Z,2.15
2019-06-07T20:00:53.470Z,2.98
2019-06-07T20:06:02.475Z,3.15
2019-06-07T20:11:06.184Z,1.32
2019-06-07T20:16:10.032Z,5.15
2019-06-07T20:27:13.462Z,2.75
2019-06-07T20:32:40.614Z,1.67
2019-06-07T20:37:45.244Z,3.85
2019-06-07T20:42:52.147Z,3.30
2019-06-07T20:47:55.811Z,2.75
2019-06-07T20:53:03.129Z,4.00
2019-06-07T20:58:07.365Z,1.98
2019-06-07T21:03:14.205Z,8.10
2019-06-07T21:08:20.179Z,2.77
2019-06-07T21:13:24.243Z,1.87
2019-06-07T21:18:31.811Z,3.23
2019-06-07T21:24:09.232Z,2.10
2019-06-07T21:29:16.209Z,8.35
2019-06-07T21:34:19.917Z,4.78
2019-06-07T21:39:25.619Z,4.85
2019-06-07T21:44:33.559Z,5.47
2019-06-07T21:49:39.089Z,2.75
2019-06-07T21:54:43.238Z,1.42
2019-06-07T21:59:49.904Z,2.65
2019-06-07T22:04:56.316Z,2.72
2019-06-07T22:10:00.220Z,2.08
2019-06-07T22:15:27.155Z,2.37
2019-06-07T22:20:14.919Z,3.42
2019-06-07T22:25:19.029Z,5.67
2019-06-07T22:30:24.464Z,4.15
2019-06-07T22:35:28.225Z,4.10
2019-06-07T22:40:32.305Z,6.12
2019-06-07T22:45:36.083Z,5.08
2019-06-07T22:50:39.764Z,2.10
2019-06-07T22:55:45.113Z,1.85
2019-06-07T23:00:48.886Z,3.05
2019-06-07T23:05:52.637Z,4.42
2019-06-07T23:10:57.418Z,3.65
2019-06-07T23:16:01.030Z,4.10
2019-06-07T23:21:04.859Z,3.27
2019-06-07T23:26:08.594Z,3.55
2019-06-07T23:31:12.493Z,5.42
2019-06-07T23:36:30.205Z,3.25
2019-06-07T23:47:10.749Z,4.70
2019-06-07T23:52:06.520Z,6.22
2019-06-07T23:57:12.121Z,5.50
